Pilsen, Illinois
Current Conditions -  °F | °C
As of 5:53 PM on Monday 20 Oct 2014 (Local Time) from KMDW Reporting Station
Broken Clouds Broken Clouds  
Wind Chill: 57°   Ceiling: 6500
Heat Index: 57°   Visibility: 10mi
Dew Point: 47°   Wind: 9mph
Humidity: 69%   Direction: 360°N
Pressure: 29.94"   Gusts: NA
Location:  41.8491°N, 87.6709°W
Report Text: KMDW 202253Z 36008KT 10SM SCT048 BKN065 14/08 A2994 RMK AO2 SLP137 T01390083
Loading
Personal Weather Stations






























Interactive Weather Map
Tropical Storm Tracking
New forecast layout! Learn more

10-Day Weather Forecast

Advertisements
Track Severe Weather on mobile